createdAt,value
2023-07-09T00:01:08.039Z,97192.56
2023-07-09T00:03:38.909Z,97187.16
2023-07-09T00:06:12.461Z,97188.22
2023-07-09T00:08:48.114Z,97195.50
2023-07-09T00:11:21.887Z,97190.81
2023-07-09T00:13:52.781Z,97200.31
2023-07-09T00:16:27.242Z,97207.00
2023-07-09T00:18:58.115Z,97200.97
2023-07-09T00:21:34.806Z,97197.44
2023-07-09T00:24:06.793Z,97203.09
2023-07-09T00:26:42.016Z,97200.41
2023-07-09T00:29:14.193Z,97206.25
2023-07-09T00:31:45.349Z,97214.00
2023-07-09T00:34:23.296Z,97216.91
2023-07-09T00:36:55.269Z,97215.72
2023-07-09T00:39:28.406Z,97211.63
2023-07-09T00:42:01.803Z,97215.00
2023-07-09T00:44:34.889Z,97204.66
2023-07-09T00:47:28.154Z,97208.88
2023-07-09T00:50:10.927Z,97206.63
2023-07-09T00:52:47.421Z,97201.91
2023-07-09T00:55:21.649Z,97196.84
2023-07-09T00:58:00.336Z,97210.34
2023-07-09T01:00:39.095Z,97208.09
2023-07-09T01:03:11.723Z,97221.22
2023-07-09T01:05:45.080Z,97218.97
2023-07-09T01:08:16.227Z,97219.63
2023-07-09T01:10:47.032Z,97223.84
2023-07-09T01:13:22.315Z,97228.88
2023-07-09T01:15:55.139Z,97228.28
2023-07-09T01:18:26.319Z,97229.78
2023-07-09T01:21:07.857Z,97228.34
2023-07-09T01:23:38.685Z,97227.75
2023-07-09T01:26:09.427Z,97232.56
2023-07-09T01:28:43.342Z,97234.84
2023-07-09T01:31:15.399Z,97231.78
2023-07-09T01:33:47.312Z,97236.59
2023-07-09T01:36:25.562Z,97242.44
2023-07-09T01:38:57.652Z,97250.75
2023-07-09T01:41:28.784Z,97245.78
2023-07-09T01:43:59.778Z,97242.72
2023-07-09T01:46:31.884Z,97254.56
2023-07-09T01:49:02.838Z,97254.16
2023-07-09T01:51:37.581Z,97249.66
2023-07-09T01:54:09.471Z,97256.53
2023-07-09T01:56:40.673Z,97254.72
2023-07-09T01:59:12.526Z,97251.88
2023-07-09T02:01:43.989Z,97253.94
2023-07-09T02:04:14.797Z,97261.66
2023-07-09T02:06:48.272Z,97269.38
2023-07-09T02:09:19.230Z,97265.47
2023-07-09T02:11:50.054Z,97263.19
2023-07-09T02:14:20.933Z,97263.63
2023-07-09T02:16:52.331Z,97268.66
2023-07-09T02:19:23.511Z,97266.59
2023-07-09T02:21:56.954Z,97274.09
2023-07-09T02:24:29.076Z,97266.44
2023-07-09T02:27:01.022Z,97269.59
2023-07-09T02:29:33.628Z,97270.00
2023-07-09T02:32:05.609Z,97273.13
2023-07-09T02:34:36.617Z,97268.25
2023-07-09T02:37:09.994Z,97274.22
2023-07-09T02:39:40.829Z,97276.53
2023-07-09T02:42:13.406Z,97280.72
2023-07-09T02:44:45.302Z,97280.53
2023-07-09T02:47:18.312Z,97282.59
2023-07-09T02:49:49.798Z,97282.22
2023-07-09T02:52:23.162Z,97281.84
2023-07-09T02:54:54.023Z,97286.81
2023-07-09T02:57:24.817Z,97276.69
2023-07-09T02:59:55.899Z,97282.50
2023-07-09T03:02:27.422Z,97282.91
2023-07-09T03:04:58.347Z,97287.69
2023-07-09T03:07:31.850Z,97284.81
2023-07-09T03:10:02.740Z,97285.22
2023-07-09T03:12:34.867Z,97290.22
2023-07-09T03:15:05.808Z,97291.47
2023-07-09T03:17:36.636Z,97288.16
2023-07-09T03:20:09.361Z,97295.63
2023-07-09T03:22:42.752Z,97294.81
2023-07-09T03:25:13.877Z,97299.59
2023-07-09T03:27:45.044Z,97306.81
2023-07-09T03:30:16.764Z,97305.16
2023-07-09T03:32:48.430Z,97303.75
2023-07-09T03:35:19.604Z,97300.22
2023-07-09T03:37:53.278Z,97304.78
2023-07-09T03:40:26.727Z,97307.22
2023-07-09T03:42:57.674Z,97305.16
2023-07-09T03:45:29.016Z,97312.81
2023-07-09T03:47:59.826Z,97312.38
2023-07-09T03:50:30.715Z,97312.56
2023-07-09T03:53:04.389Z,97308.19
2023-07-09T03:55:35.285Z,97311.91
2023-07-09T03:58:06.911Z,97310.41
2023-07-09T04:00:38.224Z,97314.06
2023-07-09T04:03:10.025Z,97319.38
2023-07-09T04:05:41.210Z,97323.63
2023-07-09T04:08:14.560Z,97322.47
2023-07-09T04:10:45.604Z,97322.38
2023-07-09T04:13:16.796Z,97317.72
2023-07-09T04:15:48.662Z,97318.44
2023-07-09T04:18:19.524Z,97318.31
2023-07-09T04:20:53.666Z,97319.22
2023-07-09T04:23:27.085Z,97328.22
2023-07-09T04:25:58.963Z,97312.94
2023-07-09T04:28:29.747Z,97311.59
2023-07-09T04:31:00.915Z,97317.44
2023-07-09T04:33:31.899Z,97317.78
2023-07-09T04:36:02.892Z,97320.38
2023-07-09T04:38:36.645Z,97329.13
2023-07-09T04:41:08.148Z,97324.25
2023-07-09T04:43:38.972Z,97321.66
2023-07-09T04:46:09.876Z,97334.06
2023-07-09T04:48:40.743Z,97324.19
2023-07-09T04:51:11.652Z,97329.69
2023-07-09T04:53:45.234Z,97332.50
2023-07-09T04:56:16.153Z,97333.16
2023-07-09T04:58:46.919Z,97331.00
2023-07-09T05:01:17.865Z,97329.91
2023-07-09T05:03:48.843Z,97325.38
2023-07-09T05:06:20.306Z,97330.56
2023-07-09T05:08:53.692Z,97333.31
2023-07-09T05:11:24.775Z,97341.13
2023-07-09T05:13:55.681Z,97328.50
2023-07-09T05:16:26.672Z,97331.06
2023-07-09T05:18:57.653Z,97326.78
2023-07-09T05:21:28.671Z,97330.38
2023-07-09T05:24:02.081Z,97330.03
2023-07-09T05:26:32.987Z,97324.72
2023-07-09T05:29:03.838Z,97326.97
2023-07-09T05:31:34.878Z,97326.75
2023-07-09T05:34:05.733Z,97327.03
2023-07-09T05:36:36.569Z,97330.81
2023-07-09T05:39:10.555Z,97319.84
2023-07-09T05:41:41.448Z,97329.56
2023-07-09T05:44:12.329Z,97323.41
2023-07-09T05:46:43.218Z,97329.50
2023-07-09T05:49:14.737Z,97326.50
2023-07-09T05:51:45.959Z,97324.22
2023-07-09T05:54:20.166Z,97331.06
2023-07-09T05:56:51.009Z,97328.25
2023-07-09T05:59:21.892Z,97319.94
2023-07-09T06:01:52.679Z,97323.94
2023-07-09T06:04:23.474Z,97320.19
2023-07-09T06:06:55.092Z,97325.78
2023-07-09T06:09:28.920Z,97322.78
2023-07-09T06:11:59.817Z,97324.28
2023-07-09T06:14:30.720Z,97318.53
2023-07-09T06:17:01.628Z,97313.44
2023-07-09T06:19:32.433Z,97317.69
2023-07-09T06:22:03.279Z,97314.75
2023-07-09T06:24:36.929Z,97316.84
2023-07-09T06:27:08.310Z,97319.56
2023-07-09T06:29:39.054Z,97319.06
2023-07-09T06:32:10.748Z,97323.06
2023-07-09T06:34:41.428Z,97320.91
2023-07-09T06:37:12.245Z,97311.56
2023-07-09T06:39:45.770Z,97312.47
2023-07-09T06:42:16.600Z,97319.97
2023-07-09T06:45:09.991Z,97314.59
2023-07-09T06:47:40.855Z,97315.47
2023-07-09T06:50:12.438Z,97319.22
2023-07-09T06:52:43.441Z,97314.69
2023-07-09T06:55:17.144Z,97315.00
2023-07-09T06:57:47.995Z,97308.69
2023-07-09T07:00:20.632Z,97312.13
2023-07-09T07:02:51.416Z,97312.13
2023-07-09T07:05:23.535Z,97300.41
2023-07-09T07:07:54.698Z,97306.06
2023-07-09T07:10:28.211Z,97302.66
2023-07-09T07:12:59.272Z,97297.09
2023-07-09T07:15:30.168Z,97293.09
2023-07-09T07:18:01.090Z,97301.34
2023-07-09T07:20:32.026Z,97292.97
2023-07-09T07:23:02.915Z,97291.91
2023-07-09T07:25:37.120Z,97302.25
2023-07-09T07:28:07.962Z,97294.97
2023-07-09T07:30:38.642Z,97295.91
2023-07-09T07:33:09.428Z,97296.81
2023-07-09T07:36:00.200Z,97291.22
2023-07-09T07:38:31.883Z,97291.97
2023-07-09T07:41:05.443Z,97301.38
2023-07-09T07:43:36.241Z,97294.50
2023-07-09T07:46:07.651Z,97284.78
2023-07-09T07:48:38.771Z,97292.63
2023-07-09T07:51:09.573Z,97288.72
2023-07-09T07:53:40.425Z,97291.84
2023-07-09T07:56:14.514Z,97285.75
2023-07-09T07:58:45.405Z,97296.44
2023-07-09T08:01:16.226Z,97283.34
2023-07-09T08:03:47.114Z,97280.53
2023-07-09T08:06:17.865Z,97285.72
2023-07-09T08:08:48.650Z,97280.78
2023-07-09T08:11:22.093Z,97273.03
2023-07-09T08:13:52.940Z,97275.78
2023-07-09T08:16:23.873Z,97279.31
2023-07-09T08:18:56.173Z,97274.44
2023-07-09T08:21:27.093Z,97269.31
2023-07-09T08:23:58.042Z,97261.50
2023-07-09T08:26:32.744Z,97272.19
2023-07-09T08:29:03.555Z,97269.72
2023-07-09T08:31:34.222Z,97268.97
2023-07-09T08:34:05.055Z,97271.78
2023-07-09T08:36:35.806Z,97271.28
2023-07-09T08:39:07.717Z,97276.66
2023-07-09T08:41:47.143Z,97275.22
2023-07-09T08:44:41.022Z,97269.09
2023-07-09T08:47:21.222Z,97271.66
2023-07-09T08:49:57.503Z,97272.94
2023-07-09T08:52:32.772Z,97268.97
2023-07-09T08:55:08.696Z,97272.94
2023-07-09T08:57:44.589Z,97279.13
2023-07-09T09:00:21.098Z,97272.06
2023-07-09T09:02:57.526Z,97268.34
2023-07-09T09:05:30.569Z,97263.31
2023-07-09T09:08:08.599Z,97274.38
2023-07-09T09:10:47.065Z,97277.31
2023-07-09T09:13:25.075Z,97269.03
2023-07-09T09:15:56.306Z,97251.72
2023-07-09T09:18:30.204Z,97262.06
2023-07-09T09:21:09.968Z,97267.13
2023-07-09T09:23:47.141Z,97265.06
2023-07-09T09:26:22.969Z,97266.47
2023-07-09T09:28:57.120Z,97266.91
2023-07-09T09:31:28.634Z,97257.91
2023-07-09T09:33:59.581Z,97263.13
2023-07-09T09:36:31.312Z,97260.09
2023-07-09T09:39:06.374Z,97265.75
2023-07-09T09:41:41.611Z,97272.63
2023-07-09T09:44:23.927Z,97272.13
2023-07-09T09:46:55.280Z,97273.41
2023-07-09T09:49:26.553Z,97273.66
2023-07-09T09:51:57.869Z,97272.38
2023-07-09T09:54:32.603Z,97268.28
2023-07-09T09:57:03.609Z,97266.34
2023-07-09T09:59:40.799Z,97266.56
2023-07-09T10:02:20.413Z,97269.19
2023-07-09T10:04:51.965Z,97261.94
2023-07-09T10:07:31.501Z,97275.09
2023-07-09T10:10:02.620Z,97275.00
2023-07-09T10:12:44.301Z,97277.75
2023-07-09T10:15:43.004Z,97268.44
2023-07-09T10:18:25.550Z,97270.28
2023-07-09T10:21:07.230Z,97272.03
2023-07-09T10:23:48.713Z,97273.66
2023-07-09T10:26:26.396Z,97272.94
2023-07-09T10:29:26.493Z,97268.53
2023-07-09T10:32:07.402Z,97267.72
2023-07-09T10:34:48.058Z,97260.69
2023-07-09T10:37:38.985Z,97270.75
2023-07-09T10:40:14.338Z,97262.91
2023-07-09T10:42:49.979Z,97263.13
2023-07-09T10:45:27.687Z,97259.19
2023-07-09T10:48:05.461Z,97262.66
2023-07-09T10:50:40.875Z,97257.38
2023-07-09T10:53:18.083Z,97259.38
2023-07-09T10:55:57.666Z,97255.66
2023-07-09T10:58:39.191Z,97262.34
2023-07-09T11:01:10.024Z,97262.72
2023-07-09T11:03:48.937Z,97253.41
2023-07-09T11:06:25.030Z,97255.50
2023-07-09T11:09:00.150Z,97260.59
2023-07-09T11:11:38.697Z,97266.66
2023-07-09T11:14:15.820Z,97261.41
2023-07-09T11:16:48.130Z,97258.66
2023-07-09T11:19:23.943Z,97260.53
2023-07-09T11:22:08.978Z,97272.44
2023-07-09T11:24:52.005Z,97262.47
2023-07-09T11:27:26.140Z,97256.22
2023-07-09T11:30:04.489Z,97262.91
2023-07-09T11:32:38.675Z,97260.28
2023-07-09T11:35:26.856Z,97259.94
2023-07-09T11:38:00.332Z,97257.97
2023-07-09T11:40:31.190Z,97249.28
2023-07-09T11:43:03.424Z,97255.47
2023-07-09T11:45:36.912Z,97252.56
2023-07-09T11:48:21.008Z,97247.44
2023-07-09T11:50:56.758Z,97249.81
2023-07-09T11:53:38.613Z,97258.59
2023-07-09T11:56:14.838Z,97252.31
2023-07-09T11:58:54.306Z,97249.81
2023-07-09T12:01:27.481Z,97251.25
2023-07-09T12:04:01.726Z,97243.91
2023-07-09T12:06:37.672Z,97253.56
2023-07-09T12:09:08.491Z,97244.00
2023-07-09T12:11:39.354Z,97245.25
2023-07-09T12:14:18.806Z,97243.78
2023-07-09T12:16:51.584Z,97239.53
2023-07-09T12:19:24.309Z,97240.94
2023-07-09T12:22:01.039Z,97228.09
2023-07-09T12:24:34.390Z,97236.66
2023-07-09T12:27:07.008Z,97235.03
2023-07-09T12:29:40.920Z,97226.56
2023-07-09T12:32:18.572Z,97225.56
2023-07-09T12:34:52.208Z,97229.09
2023-07-09T12:37:26.527Z,97227.97
2023-07-09T12:39:57.716Z,97216.56
2023-07-09T12:42:34.990Z,97218.78
2023-07-09T12:45:06.802Z,97222.53
2023-07-09T12:47:38.317Z,97217.41
2023-07-09T12:50:22.777Z,97215.41
2023-07-09T12:52:59.110Z,97209.69
2023-07-09T12:55:32.495Z,97211.69
2023-07-09T12:58:04.305Z,97210.28
2023-07-09T13:00:35.518Z,97202.56
2023-07-09T13:03:06.835Z,97199.88
2023-07-09T13:05:37.695Z,97203.66
2023-07-09T13:08:18.805Z,97204.63
2023-07-09T13:10:52.237Z,97198.06
2023-07-09T13:13:26.109Z,97195.38
2023-07-09T13:16:02.820Z,97189.28
2023-07-09T13:18:33.786Z,97191.31
2023-07-09T13:21:14.862Z,97198.41
2023-07-09T13:23:48.520Z,97197.59
2023-07-09T13:26:20.178Z,97203.94
2023-07-09T13:28:52.679Z,97199.53
2023-07-09T13:31:24.978Z,97199.13
2023-07-09T13:34:00.875Z,97194.00
2023-07-09T13:36:31.691Z,97197.44
2023-07-09T13:39:05.050Z,97203.59
2023-07-09T13:41:35.964Z,97204.44
2023-07-09T13:44:14.994Z,97209.31
2023-07-09T13:46:45.865Z,97210.44
2023-07-09T13:49:20.215Z,97206.03
2023-07-09T13:51:52.436Z,97204.38
2023-07-09T13:54:28.502Z,97201.25
2023-07-09T13:56:59.243Z,97204.56
2023-07-09T13:59:32.749Z,97210.81
2023-07-09T14:02:07.095Z,97210.41
2023-07-09T14:04:38.253Z,97217.88
2023-07-09T14:07:13.486Z,97215.78
2023-07-09T14:09:46.811Z,97214.38
2023-07-09T14:12:17.661Z,97213.06
2023-07-09T14:14:48.555Z,97210.81
2023-07-09T14:17:19.430Z,97209.38
2023-07-09T14:19:50.367Z,97209.47
2023-07-09T14:22:34.742Z,97203.97
2023-07-09T14:25:09.937Z,97208.53
2023-07-09T14:27:40.796Z,97203.31
2023-07-09T14:30:18.413Z,97190.16
2023-07-09T14:32:51.528Z,97204.88
2023-07-09T14:35:24.746Z,97202.81
2023-07-09T14:38:00.381Z,97202.91
2023-07-09T14:40:33.884Z,97204.09
2023-07-09T14:43:04.960Z,97195.91
2023-07-09T14:45:36.381Z,97203.94
2023-07-09T14:48:14.155Z,97198.28
2023-07-09T14:50:46.077Z,97206.22
2023-07-09T14:53:19.340Z,97206.00
2023-07-09T14:55:53.218Z,97203.84
2023-07-09T14:58:25.533Z,97208.00
2023-07-09T15:00:57.089Z,97208.63
2023-07-09T15:03:30.883Z,97197.41
2023-07-09T15:06:04.124Z,97203.50
2023-07-09T15:08:34.939Z,97205.72
2023-07-09T15:11:08.628Z,97206.31
2023-07-09T15:13:40.941Z,97203.06
2023-07-09T15:16:12.977Z,97202.53
2023-07-09T15:18:44.150Z,97200.91
2023-07-09T15:21:16.617Z,97202.31
2023-07-09T15:23:48.574Z,97210.31
2023-07-09T15:26:21.932Z,97203.78
2023-07-09T15:28:52.871Z,97210.69
2023-07-09T15:31:23.769Z,97222.22
2023-07-09T15:33:54.691Z,97215.97
2023-07-09T15:36:25.550Z,97217.66
2023-07-09T15:38:56.598Z,97217.44
2023-07-09T15:41:30.200Z,97217.22
2023-07-09T15:44:01.124Z,97221.06
2023-07-09T15:46:32.125Z,97218.63
2023-07-09T15:49:02.877Z,97219.72
2023-07-09T15:51:33.732Z,97222.75
2023-07-09T15:54:04.676Z,97224.97
2023-07-09T15:56:39.031Z,97217.34
2023-07-09T15:59:10.228Z,97231.63
2023-07-09T16:01:40.992Z,97223.75
2023-07-09T16:04:13.768Z,97224.63
2023-07-09T16:06:44.859Z,97234.50
2023-07-09T16:09:16.153Z,97228.00
2023-07-09T16:11:52.114Z,97225.03
2023-07-09T16:14:28.077Z,97224.78
2023-07-09T16:17:00.129Z,97221.28
2023-07-09T16:19:32.692Z,97228.72
2023-07-09T16:22:06.860Z,97220.53
2023-07-09T16:24:39.702Z,97223.34
2023-07-09T16:27:19.144Z,97226.94
2023-07-09T16:29:49.944Z,97228.09
2023-07-09T16:32:20.795Z,97233.91
2023-07-09T16:34:51.584Z,97233.44
2023-07-09T16:37:26.806Z,97236.19
2023-07-09T16:39:57.486Z,97233.00
2023-07-09T16:42:31.538Z,97235.78
2023-07-09T16:45:02.448Z,97242.66
2023-07-09T16:47:36.209Z,97236.69
2023-07-09T16:50:07.726Z,97233.44
2023-07-09T16:52:38.463Z,97235.69
2023-07-09T16:55:11.349Z,97242.25
2023-07-09T16:57:45.187Z,97240.97
2023-07-09T17:00:30.067Z,97235.81
2023-07-09T17:03:04.680Z,97239.38
2023-07-09T17:05:36.966Z,97238.06
2023-07-09T17:08:08.172Z,97242.19
2023-07-09T17:10:39.212Z,97240.00
2023-07-09T17:13:16.758Z,97243.25
2023-07-09T17:15:47.570Z,97240.31
2023-07-09T17:18:23.086Z,97238.50
2023-07-09T17:20:56.369Z,97240.66
2023-07-09T17:23:30.449Z,97247.34
2023-07-09T17:26:03.369Z,97245.72
2023-07-09T17:28:37.373Z,97242.00
2023-07-09T17:31:08.221Z,97243.50
2023-07-09T17:33:40.242Z,97243.69
2023-07-09T17:36:17.829Z,97242.25
2023-07-09T17:38:50.290Z,97247.06
2023-07-09T17:41:21.225Z,97245.59
2023-07-09T17:43:54.791Z,97248.75
2023-07-09T17:46:26.514Z,97249.50
2023-07-09T17:48:57.377Z,97253.09
2023-07-09T17:51:28.278Z,97259.38
2023-07-09T17:53:59.006Z,97258.09
2023-07-09T17:56:31.150Z,97259.38
2023-07-09T17:59:05.039Z,97257.53
2023-07-09T18:01:36.073Z,97262.78
2023-07-09T18:04:22.725Z,97260.06
2023-07-09T18:07:02.579Z,97273.13
2023-07-09T18:09:34.616Z,97277.16
2023-07-09T18:12:05.507Z,97275.03
2023-07-09T18:14:42.103Z,97281.66
2023-07-09T18:17:19.337Z,97281.44
2023-07-09T18:19:50.249Z,97288.53
2023-07-09T18:22:24.313Z,97292.91
2023-07-09T18:24:55.084Z,97292.06
2023-07-09T18:27:28.986Z,97284.69
2023-07-09T18:30:02.849Z,97289.56
2023-07-09T18:32:35.443Z,97295.47
2023-07-09T18:35:22.091Z,97297.84
2023-07-09T18:37:55.509Z,97296.13
2023-07-09T18:40:26.401Z,97307.78
2023-07-09T18:42:57.395Z,97298.97
2023-07-09T18:45:32.570Z,97308.41
2023-07-09T18:48:04.021Z,97314.88
2023-07-09T18:50:36.080Z,97320.22
2023-07-09T18:53:06.816Z,97321.53
2023-07-09T18:55:38.008Z,97315.50
2023-07-09T18:58:14.818Z,97316.78
2023-07-09T19:00:49.497Z,97315.09
2023-07-09T19:03:23.278Z,97319.38
2023-07-09T19:05:54.396Z,97328.81
2023-07-09T19:08:27.001Z,97326.28
2023-07-09T19:10:58.164Z,97328.63
2023-07-09T19:13:29.012Z,97327.19
2023-07-09T19:16:03.672Z,97333.34
2023-07-09T19:18:37.316Z,97332.41
2023-07-09T19:21:09.289Z,97332.28
2023-07-09T19:23:40.183Z,97330.50
2023-07-09T19:26:13.855Z,97331.69
2023-07-09T19:28:44.852Z,97342.69
2023-07-09T19:31:18.479Z,97339.81
2023-07-09T19:33:49.538Z,97342.97
2023-07-09T19:36:26.576Z,97341.75
2023-07-09T19:38:58.890Z,97345.13
2023-07-09T19:41:31.004Z,97345.03
2023-07-09T19:44:01.819Z,97338.72
2023-07-09T19:46:35.683Z,97345.13
2023-07-09T19:49:07.512Z,97344.47
2023-07-09T19:51:38.422Z,97344.41
2023-07-09T19:54:15.827Z,97341.38
2023-07-09T19:56:50.159Z,97345.00
2023-07-09T19:59:22.918Z,97343.53
2023-07-09T20:01:56.322Z,97352.66
2023-07-09T20:04:27.612Z,97356.91
2023-07-09T20:06:58.606Z,97354.13
2023-07-09T20:09:29.499Z,97358.38
2023-07-09T20:12:01.548Z,97358.03
2023-07-09T20:14:32.572Z,97350.88
2023-07-09T20:17:06.041Z,97354.56
2023-07-09T20:19:38.420Z,97363.41
2023-07-09T20:22:09.770Z,97348.69
2023-07-09T20:24:40.721Z,97353.78
2023-07-09T20:27:16.155Z,97356.16
2023-07-09T20:29:47.408Z,97363.13
2023-07-09T20:32:22.409Z,97359.25
2023-07-09T20:34:57.376Z,97361.88
2023-07-09T20:37:28.198Z,97357.50
2023-07-09T20:39:58.921Z,97363.97
2023-07-09T20:42:29.703Z,97362.25
2023-07-09T20:45:01.128Z,97359.41
2023-07-09T20:47:34.645Z,97355.09
2023-07-09T20:50:05.668Z,97361.84
2023-07-09T20:52:36.473Z,97360.19
2023-07-09T20:55:08.201Z,97364.53
2023-07-09T20:57:39.670Z,97352.72
2023-07-09T21:00:18.118Z,97359.63
2023-07-09T21:02:53.046Z,97368.94
2023-07-09T21:05:23.790Z,97370.31
2023-07-09T21:07:54.966Z,97371.97
2023-07-09T21:10:28.650Z,97368.44
2023-07-09T21:12:59.390Z,97371.63
2023-07-09T21:15:35.064Z,97371.59
2023-07-09T21:18:11.394Z,97366.59
2023-07-09T21:20:42.324Z,97369.81
2023-07-09T21:23:17.891Z,97371.41
2023-07-09T21:25:49.014Z,97368.16
2023-07-09T21:28:20.193Z,97367.09
2023-07-09T21:30:51.138Z,97373.75
2023-07-09T21:33:33.233Z,97372.38
2023-07-09T21:36:04.402Z,97378.25
2023-07-09T21:38:35.464Z,97383.06
2023-07-09T21:41:07.077Z,97382.63
2023-07-09T21:43:37.967Z,97386.31
2023-07-09T21:46:08.800Z,97378.78
2023-07-09T21:48:42.251Z,97392.44
2023-07-09T21:51:14.296Z,97383.25
2023-07-09T21:54:06.820Z,97376.88
2023-07-09T21:56:35.993Z,97374.81
2023-07-09T21:59:09.627Z,97373.31
2023-07-09T22:01:41.033Z,97374.50
2023-07-09T22:04:19.658Z,97373.34
2023-07-09T22:06:50.445Z,97373.81
2023-07-09T22:09:21.238Z,97380.06
2023-07-09T22:11:52.145Z,97381.47
2023-07-09T22:14:25.348Z,97382.88
2023-07-09T22:16:58.336Z,97376.13
2023-07-09T22:19:43.674Z,97382.94
2023-07-09T22:22:17.197Z,97375.16
2023-07-09T22:24:47.962Z,97376.06
2023-07-09T22:30:25.877Z,97369.81
2023-07-09T22:33:00.455Z,97371.31
2023-07-09T22:35:38.671Z,97374.47
2023-07-09T22:38:22.037Z,97369.41
2023-07-09T22:40:53.634Z,97370.91
2023-07-09T22:43:24.423Z,97368.06
2023-07-09T22:45:56.083Z,97367.31
2023-07-09T22:48:26.858Z,97373.19
2023-07-09T22:51:00.344Z,97369.16
2023-07-09T22:53:31.221Z,97371.25
2023-07-09T22:56:02.101Z,97374.66
2023-07-09T22:58:33.181Z,97368.03
2023-07-09T23:01:15.237Z,97366.00
2023-07-09T23:03:47.379Z,97368.56
2023-07-09T23:06:23.226Z,97362.78
2023-07-09T23:08:55.283Z,97365.56
2023-07-09T23:11:29.391Z,97363.75
2023-07-09T23:14:01.018Z,97367.94
2023-07-09T23:16:35.125Z,97365.09
2023-07-09T23:19:18.568Z,97362.88
2023-07-09T23:21:52.072Z,97364.16
2023-07-09T23:24:23.235Z,97367.28
2023-07-09T23:26:57.659Z,97364.81
2023-07-09T23:29:28.470Z,97367.34
2023-07-09T23:31:59.274Z,97366.81
2023-07-09T23:34:30.060Z,97366.28
2023-07-09T23:37:04.796Z,97357.63
2023-07-09T23:39:35.553Z,97360.84
2023-07-09T23:42:06.530Z,97351.56
2023-07-09T23:44:37.376Z,97355.75
2023-07-09T23:47:14.776Z,97351.78
2023-07-09T23:49:45.589Z,97348.72
2023-07-09T23:52:19.015Z,97349.16
2023-07-09T23:54:49.890Z,97356.88
2023-07-09T23:57:20.797Z,97350.84
2023-07-09T23:59:52.195Z,97353.78
